Rechercher aéroport 
image banner adimage banner adimage banner ad
image banner ad

2CN4 - Wonderful Pistachios&Almonds

Situé à Lost Hills, United States

ICAO - 2CN4, IATA -

Données fournies par Airmate  

Information générale

Coordonnées: N35°39'59" W119°53'47"
Élévation : 617 feet MSL.
 
Voir autres Aéroports à California

Données opérationnelles

Special qualification required
Heure actuelle UTC:
Heure actuelle locale:
Météo à : KDLO - Delano Muni ( 60 km )
METAR: KDLO 251155Z AUTO 16003KT 10SM CLR 20/09 A2988 RMK AO2 T01960086 10270 20196
Voir NOTAMs / SUP AIP / TFR affectant cet aéroport [VIEW]
Fréquences de communication: [VIEW]

Pistes:

Identifiant RWYQFULongueur (ft)Largeur (ft)SurfaceLDA (ft)
13500260ASPH
31500260ASPH

Coordonnées de l'aéroport

Adresse: Lost Hills United States

Vue satellite de 2CN4